Terminal Aerodrome Forecast
Issued by NWS

Current Version | Previous Version | Graphics & Text | Print | Product List | Glossary On
Versions: 1 2 3 4 5 6 7 8 9 10 11 12 13 14 15 16 17 18 19 20 21 22 23 24 25 26 27
000
FTUS41 KRLX 172300
TAFCKB
TAF
KCKB 172338Z 1800/1824 VRB03KT 6SM BR SCT040 BKN070
     FM180500 00000KT 4SM BR BKN040
     FM180900 VRB03KT 2SM BR SCT001
     FM181300 16005KT 5SM HZ BKN030
     FM181900 VRB03KT 6SM HZ VCTS BKN030CB=

USA.gov is the U.S. government's official web portal to all federal, state and local government web resources and services.